createdAt,value
2019-02-20T00:01:04.023Z,55.65
2019-02-20T00:04:07.015Z,55.53
2019-02-20T00:07:09.511Z,55.53
2019-02-20T00:10:11.611Z,55.63
2019-02-20T00:13:13.535Z,55.55
2019-02-20T00:16:15.419Z,55.56
2019-02-20T00:19:17.458Z,55.55
2019-02-20T00:22:19.419Z,55.42
2019-02-20T00:25:21.251Z,55.46
2019-02-20T00:28:23.196Z,55.60
2019-02-20T00:31:25.099Z,55.63
2019-02-20T00:34:27.101Z,55.54
2019-02-20T00:37:29.053Z,55.42
2019-02-20T00:40:31.000Z,55.37
2019-02-20T00:43:32.916Z,55.31
2019-02-20T00:46:36.638Z,55.12
2019-02-20T00:49:39.760Z,54.95
2019-02-20T00:53:00.294Z,55.00
2019-02-20T00:56:02.222Z,54.91
2019-02-20T00:59:04.104Z,55.08
2019-02-20T01:02:05.995Z,54.98
2019-02-20T01:05:08.067Z,54.87
2019-02-20T01:08:09.998Z,54.88
2019-02-20T01:11:12.002Z,54.94
2019-02-20T01:14:13.903Z,55.05
2019-02-20T01:17:15.967Z,55.14
2019-02-20T01:20:17.921Z,55.14
2019-02-20T01:23:19.862Z,55.17
2019-02-20T01:26:21.745Z,55.18
2019-02-20T01:29:23.671Z,55.37
2019-02-20T01:32:25.597Z,55.52
2019-02-20T01:35:27.544Z,55.38
2019-02-20T01:38:29.424Z,55.45
2019-02-20T01:41:31.330Z,55.45
2019-02-20T01:44:33.255Z,55.42
2019-02-20T01:47:35.119Z,55.28
2019-02-20T01:50:37.796Z,55.01
2019-02-20T01:53:39.707Z,54.91
2019-02-20T01:56:41.614Z,54.75
2019-02-20T01:59:43.557Z,54.68
2019-02-20T02:02:45.590Z,54.65
2019-02-20T02:05:47.844Z,54.63
2019-02-20T02:08:49.837Z,54.60
2019-02-20T02:11:51.801Z,54.50
2019-02-20T02:14:53.746Z,54.41
2019-02-20T02:17:55.655Z,54.24
2019-02-20T02:20:57.736Z,54.34
2019-02-20T02:23:59.791Z,54.22
2019-02-20T02:27:01.726Z,54.18
2019-02-20T02:30:07.252Z,54.35
2019-02-20T02:33:09.370Z,54.38
2019-02-20T02:36:11.304Z,54.50
2019-02-20T02:39:13.259Z,54.44
2019-02-20T02:42:15.147Z,54.56
2019-02-20T02:45:17.153Z,54.52
2019-02-20T02:48:19.089Z,54.48
2019-02-20T02:51:21.053Z,54.54
2019-02-20T02:54:22.954Z,54.71
2019-02-20T02:57:24.913Z,54.69
2019-02-20T03:00:26.923Z,54.59
2019-02-20T03:03:28.820Z,54.46
2019-02-20T03:06:30.784Z,54.59
2019-02-20T03:09:32.642Z,54.60
2019-02-20T03:12:35.186Z,54.53
2019-02-20T03:15:37.065Z,54.44
2019-02-20T03:18:39.025Z,54.44
2019-02-20T03:21:40.972Z,54.40
2019-02-20T03:24:42.911Z,54.36
2019-02-20T03:27:44.768Z,54.18
2019-02-20T03:30:46.750Z,54.13
2019-02-20T03:33:48.759Z,54.09
2019-02-20T03:36:50.671Z,54.24
2019-02-20T03:39:52.592Z,54.13
2019-02-20T03:42:54.533Z,54.15
2019-02-20T03:45:56.443Z,54.27
2019-02-20T03:48:58.413Z,54.16
2019-02-20T03:52:00.415Z,54.09
2019-02-20T03:55:03.089Z,53.95
2019-02-20T03:58:04.967Z,53.92
2019-02-20T04:01:06.894Z,53.86
2019-02-20T04:04:08.751Z,53.55
2019-02-20T04:07:11.759Z,53.59
2019-02-20T04:10:13.642Z,53.57
2019-02-20T04:13:15.782Z,53.74
2019-02-20T04:16:17.670Z,53.93
2019-02-20T04:19:19.629Z,53.96
2019-02-20T04:22:21.547Z,53.88
2019-02-20T04:25:23.398Z,53.89
2019-02-20T04:28:25.302Z,53.99
2019-02-20T04:31:27.191Z,54.20
2019-02-20T04:34:29.155Z,54.20
2019-02-20T04:37:31.009Z,54.05
2019-02-20T04:40:32.952Z,54.19
2019-02-20T04:43:34.871Z,54.20
2019-02-20T04:46:36.824Z,53.96
2019-02-20T04:49:38.858Z,53.96
2019-02-20T04:52:40.775Z,53.91
2019-02-20T04:55:42.755Z,53.68
2019-02-20T04:58:46.338Z,53.56
2019-02-20T05:01:48.361Z,53.45
2019-02-20T05:04:50.278Z,53.40
2019-02-20T05:07:52.248Z,53.56
2019-02-20T05:10:54.182Z,53.54
2019-02-20T05:13:56.276Z,53.61
2019-02-20T05:16:58.186Z,53.57
2019-02-20T05:20:00.309Z,53.47
2019-02-20T05:23:02.409Z,53.34
2019-02-20T05:26:04.359Z,53.14
2019-02-20T05:29:06.303Z,53.27
2019-02-20T05:32:08.279Z,53.35
2019-02-20T05:35:10.231Z,53.36
2019-02-20T05:38:12.140Z,53.39
2019-02-20T05:41:14.134Z,53.56
2019-02-20T05:44:17.500Z,53.47
2019-02-20T05:47:19.411Z,53.48
2019-02-20T05:50:21.335Z,53.76
2019-02-20T05:53:23.265Z,53.76
2019-02-20T05:56:25.167Z,53.80
2019-02-20T05:59:27.163Z,53.82
2019-02-20T06:02:29.829Z,53.89
2019-02-20T06:05:32.373Z,53.85
2019-02-20T06:08:34.245Z,53.82
2019-02-20T06:11:36.295Z,53.79
2019-02-20T06:14:38.377Z,53.69
2019-02-20T06:17:40.431Z,53.61
2019-02-20T06:20:43.701Z,53.62
2019-02-20T06:23:45.721Z,53.81
2019-02-20T06:26:47.710Z,53.77
2019-02-20T06:29:50.121Z,53.65
2019-02-20T06:32:52.035Z,53.67
2019-02-20T06:35:54.030Z,53.78
2019-02-20T06:38:55.953Z,53.67
2019-02-20T06:41:57.896Z,53.63
2019-02-20T06:44:59.839Z,53.55
2019-02-20T06:48:01.761Z,53.51
2019-02-20T06:51:03.683Z,53.34
2019-02-20T06:54:05.654Z,53.29
2019-02-20T06:57:07.647Z,53.48
2019-02-20T07:00:12.229Z,53.51
2019-02-20T07:03:14.104Z,53.55
2019-02-20T07:06:34.919Z,53.57
2019-02-20T07:09:52.697Z,53.42
2019-02-20T07:12:58.250Z,53.32
2019-02-20T07:16:33.178Z,53.26
2019-02-20T07:19:44.439Z,53.21
2019-02-20T07:23:21.761Z,53.14
2019-02-20T07:26:36.341Z,53.09
2019-02-20T07:29:47.763Z,53.15
2019-02-20T07:32:49.686Z,53.10
2019-02-20T07:35:51.602Z,53.06
2019-02-20T07:38:56.695Z,52.80
2019-02-20T07:41:58.673Z,52.93
2019-02-20T07:45:00.651Z,52.72
2019-02-20T07:48:04.659Z,52.54
2019-02-20T07:51:06.699Z,52.41
2019-02-20T07:54:09.171Z,52.28
2019-02-20T07:57:11.150Z,52.22
2019-02-20T08:00:14.491Z,52.22
2019-02-20T08:03:16.491Z,52.03
2019-02-20T08:06:18.470Z,51.75
2019-02-20T08:09:21.683Z,51.67
2019-02-20T08:12:23.574Z,51.51
2019-02-20T08:15:25.525Z,51.12
2019-02-20T08:18:27.610Z,51.04
2019-02-20T08:21:29.642Z,50.78
2019-02-20T08:24:31.621Z,50.53
2019-02-20T08:27:33.642Z,50.48
2019-02-20T08:30:35.527Z,49.85
2019-02-20T08:33:37.424Z,49.77
2019-02-20T08:36:39.379Z,49.54
2019-02-20T08:39:41.394Z,49.45
2019-02-20T08:42:43.359Z,49.32
2019-02-20T08:45:45.271Z,49.11
2019-02-20T08:48:47.192Z,48.87
2019-02-20T08:51:49.150Z,48.76
2019-02-20T08:54:51.045Z,48.77
2019-02-20T08:57:53.028Z,48.10
2019-02-20T09:00:54.976Z,47.68
2019-02-20T09:03:57.459Z,47.96
2019-02-20T09:06:59.360Z,48.02
2019-02-20T09:10:02.000Z,47.53
2019-02-20T09:13:04.090Z,47.33
2019-02-20T09:16:06.071Z,46.70
2019-02-20T09:19:08.091Z,46.94
2019-02-20T09:22:10.116Z,46.51
2019-02-20T09:25:19.584Z,46.65
2019-02-20T09:28:15.973Z,46.55
2019-02-20T09:31:17.919Z,46.97
2019-02-20T09:34:19.985Z,47.00
2019-02-20T09:37:22.024Z,46.54
2019-02-20T09:40:24.022Z,46.55
2019-02-20T09:43:25.936Z,46.22
2019-02-20T09:46:27.861Z,46.15
2019-02-20T09:49:29.782Z,46.44
2019-02-20T09:52:31.627Z,46.21
2019-02-20T09:55:33.609Z,46.00
2019-02-20T09:58:35.644Z,45.93
2019-02-20T10:01:37.583Z,46.02
2019-02-20T10:04:39.481Z,46.14
2019-02-20T10:07:41.439Z,46.39
2019-02-20T10:10:43.359Z,46.28
2019-02-20T10:13:45.358Z,46.46
2019-02-20T10:16:47.319Z,46.21
2019-02-20T10:19:49.320Z,46.15
2019-02-20T10:22:51.227Z,45.96
2019-02-20T10:26:00.589Z,46.02
2019-02-20T10:28:57.222Z,46.00
2019-02-20T10:31:59.211Z,45.77
2019-02-20T10:35:01.162Z,45.62
2019-02-20T10:38:03.153Z,45.50
2019-02-20T10:41:05.106Z,45.41
2019-02-20T10:44:07.102Z,44.73
2019-02-20T10:47:10.286Z,44.41
2019-02-20T10:50:12.970Z,44.67
2019-02-20T10:53:14.907Z,44.72
2019-02-20T10:56:16.879Z,45.11
2019-02-20T10:59:19.036Z,44.71
2019-02-20T11:02:20.906Z,45.04
2019-02-20T11:05:22.837Z,44.75
2019-02-20T11:08:25.255Z,44.58
2019-02-20T11:11:28.129Z,44.73
2019-02-20T11:14:30.079Z,44.36
2019-02-20T11:17:32.007Z,44.68
2019-02-20T11:20:34.100Z,44.15
2019-02-20T11:23:36.054Z,44.37
2019-02-20T11:26:50.268Z,44.03
2019-02-20T11:29:41.946Z,44.34
2019-02-20T11:32:43.881Z,43.80
2019-02-20T11:35:45.952Z,43.87
2019-02-20T11:38:47.905Z,43.54
2019-02-20T11:41:49.836Z,43.75
2019-02-20T11:44:51.785Z,43.63
2019-02-20T11:47:53.740Z,43.77
2019-02-20T11:50:55.823Z,43.51
2019-02-20T11:53:57.764Z,43.30
2019-02-20T11:56:59.774Z,43.36
2019-02-20T12:00:01.907Z,43.70
2019-02-20T12:03:05.057Z,42.92
2019-02-20T12:06:07.382Z,43.07
2019-02-20T12:09:09.681Z,43.24
2019-02-20T12:12:12.204Z,43.50
2019-02-20T12:15:14.120Z,43.04
2019-02-20T12:18:17.544Z,43.12
2019-02-20T12:21:20.875Z,42.85
2019-02-20T12:24:22.811Z,42.76
2019-02-20T12:27:24.837Z,42.68
2019-02-20T12:30:26.911Z,42.34
2019-02-20T12:33:29.087Z,42.22
2019-02-20T12:36:30.991Z,42.31
2019-02-20T12:39:32.953Z,41.66
2019-02-20T12:42:34.917Z,41.44
2019-02-20T12:45:36.898Z,41.56
2019-02-20T12:48:39.098Z,41.35
2019-02-20T12:51:41.378Z,41.47
2019-02-20T12:54:43.290Z,41.40
2019-02-20T12:57:45.191Z,41.44
2019-02-20T13:00:47.237Z,41.22
2019-02-20T13:03:49.122Z,40.93
2019-02-20T13:06:59.231Z,40.50
2019-02-20T13:09:55.297Z,40.64
2019-02-20T13:12:57.226Z,40.63
2019-02-20T13:15:59.136Z,40.63
2019-02-20T13:19:01.075Z,40.30
2019-02-20T13:22:03.087Z,39.58
2019-02-20T13:25:06.981Z,39.21
2019-02-20T13:28:08.952Z,39.67
2019-02-20T13:31:11.078Z,39.36
2019-02-20T13:34:13.116Z,39.97
2019-02-20T13:37:15.097Z,40.39
2019-02-20T13:40:17.220Z,41.08
2019-02-20T13:43:19.106Z,41.60
2019-02-20T13:46:21.600Z,41.65
2019-02-20T13:49:23.619Z,41.61
2019-02-20T13:52:25.711Z,41.44
2019-02-20T13:55:34.189Z,41.43
2019-02-20T13:58:31.736Z,41.09
2019-02-20T14:01:34.017Z,40.91
2019-02-20T14:04:35.981Z,41.32
2019-02-20T14:07:39.508Z,41.64
2019-02-20T14:10:42.969Z,41.40
2019-02-20T14:13:44.942Z,40.99
2019-02-20T14:16:46.918Z,41.09
2019-02-20T14:19:49.242Z,41.16
2019-02-20T14:22:51.285Z,41.10
2019-02-20T14:25:54.470Z,41.28
2019-02-20T14:28:56.673Z,41.63
2019-02-20T14:31:58.736Z,41.60
2019-02-20T14:35:00.790Z,41.74
2019-02-20T14:38:02.705Z,41.91
2019-02-20T14:41:04.745Z,41.62
2019-02-20T14:44:06.975Z,41.91
2019-02-20T14:47:09.104Z,41.83
2019-02-20T14:50:13.450Z,41.81
2019-02-20T14:53:15.413Z,41.93
2019-02-20T14:56:17.559Z,42.04
2019-02-20T14:59:19.603Z,42.39
2019-02-20T15:02:23.000Z,42.38
2019-02-20T15:05:25.193Z,42.38
2019-02-20T15:08:27.303Z,42.65
2019-02-20T15:11:29.369Z,42.58
2019-02-20T15:14:31.231Z,42.63
2019-02-20T15:17:33.181Z,42.79
2019-02-20T15:20:35.669Z,43.04
2019-02-20T15:23:38.230Z,43.05
2019-02-20T15:26:40.158Z,43.35
2019-02-20T15:29:42.098Z,43.33
2019-02-20T15:32:44.069Z,43.63
2019-02-20T15:35:47.509Z,43.55
2019-02-20T15:38:49.379Z,43.56
2019-02-20T15:41:51.339Z,43.78
2019-02-20T15:44:53.348Z,43.87
2019-02-20T15:47:55.509Z,43.92
2019-02-20T15:50:57.480Z,44.11
2019-02-20T15:53:59.512Z,44.26
2019-02-20T15:57:01.443Z,44.38
2019-02-20T16:00:10.184Z,44.36
2019-02-20T16:03:12.268Z,44.38
2019-02-20T16:06:14.183Z,44.52
2019-02-20T16:09:16.441Z,44.38
2019-02-20T16:12:18.584Z,44.49
2019-02-20T16:15:20.785Z,44.48
2019-02-20T16:18:24.292Z,44.61
2019-02-20T16:21:26.209Z,44.80
2019-02-20T16:24:28.306Z,44.92
2019-02-20T16:27:31.372Z,45.04
2019-02-20T16:30:33.625Z,45.23
2019-02-20T16:33:35.654Z,45.42
2019-02-20T16:36:37.604Z,45.49
2019-02-20T16:39:40.857Z,45.56
2019-02-20T16:42:43.143Z,45.72
2019-02-20T16:45:47.640Z,45.95
2019-02-20T16:48:49.918Z,45.76
2019-02-20T16:51:52.544Z,45.49
2019-02-20T16:54:55.401Z,45.47
2019-02-20T16:57:57.318Z,45.52
2019-02-20T17:00:59.334Z,45.61
2019-02-20T17:09:31.788Z,45.44
2019-02-20T17:12:35.613Z,45.98
2019-02-20T17:15:37.597Z,47.47
2019-02-20T17:18:39.605Z,48.49
2019-02-20T17:21:41.680Z,49.19
2019-02-20T17:24:45.640Z,49.96
2019-02-20T17:27:47.655Z,51.16
2019-02-20T17:30:49.529Z,51.82
2019-02-20T17:33:51.423Z,52.03
2019-02-20T17:36:54.420Z,52.13
2019-02-20T17:39:56.346Z,52.42
2019-02-20T17:42:58.296Z,52.47
2019-02-20T17:46:01.432Z,52.63
2019-02-20T17:49:05.948Z,52.53
2019-02-20T17:52:11.069Z,52.84
2019-02-20T17:55:16.252Z,52.88
2019-02-20T17:58:19.452Z,53.03
2019-02-20T18:01:23.505Z,52.99
2019-02-20T18:04:27.257Z,53.18
2019-02-20T18:07:32.186Z,53.44
2019-02-20T18:10:34.095Z,53.64
2019-02-20T18:13:36.033Z,53.77
2019-02-20T18:16:39.951Z,53.96
2019-02-20T18:19:44.434Z,54.34
2019-02-20T18:22:46.647Z,54.86
2019-02-20T18:25:49.078Z,54.67
2019-02-20T18:28:50.959Z,54.73
2019-02-20T18:31:55.646Z,54.84
2019-02-20T18:34:57.558Z,54.86
2019-02-20T18:38:00.292Z,54.90
2019-02-20T18:41:05.355Z,54.75
2019-02-20T18:44:09.049Z,54.66
2019-02-20T18:47:13.119Z,54.86
2019-02-20T18:50:16.207Z,55.22
2019-02-20T18:53:20.156Z,55.28
2019-02-20T18:56:22.061Z,55.23
2019-02-20T18:59:24.290Z,55.14
2019-02-20T19:02:26.318Z,55.14
2019-02-20T19:05:28.215Z,55.13
2019-02-20T19:08:48.087Z,55.07
2019-02-20T19:11:56.739Z,55.01
2019-02-20T19:15:10.270Z,54.98
2019-02-20T19:18:15.951Z,55.17
2019-02-20T19:21:21.514Z,55.26
2019-02-20T19:24:41.399Z,55.43
2019-02-20T19:27:51.800Z,55.50
2019-02-20T19:31:09.273Z,55.66
2019-02-20T19:34:28.747Z,55.70
2019-02-20T19:37:34.502Z,55.74
2019-02-20T19:40:40.141Z,55.82
2019-02-20T19:44:00.775Z,56.02
2019-02-20T19:47:38.184Z,56.12
2019-02-20T19:50:56.590Z,56.21
2019-02-20T19:54:15.017Z,56.19
2019-02-20T19:57:29.688Z,56.17
2019-02-20T20:00:38.702Z,56.05
2019-02-20T20:03:51.891Z,55.94
2019-02-20T20:07:16.974Z,55.90
2019-02-20T20:10:29.900Z,56.04
2019-02-20T20:13:46.220Z,56.07
2019-02-20T20:17:10.094Z,56.54
2019-02-20T20:20:30.875Z,56.43
2019-02-20T20:24:12.004Z,56.56
2019-02-20T20:27:45.239Z,56.93
2019-02-20T20:30:51.077Z,56.78
2019-02-20T20:33:59.305Z,56.82
2019-02-20T20:37:21.037Z,56.77
2019-02-20T20:40:53.097Z,56.71
2019-02-20T20:44:07.430Z,56.90
2019-02-20T20:47:18.864Z,56.75
2019-02-20T20:50:50.342Z,56.70
2019-02-20T20:54:28.427Z,56.76
2019-02-20T20:57:43.521Z,56.73
2019-02-20T21:01:09.112Z,56.70
2019-02-20T21:04:44.986Z,56.65
2019-02-20T21:07:52.369Z,56.63
2019-02-20T21:11:17.018Z,56.64
2019-02-20T21:14:33.579Z,56.66
2019-02-20T21:17:44.837Z,56.55
2019-02-20T21:21:13.161Z,56.43
2019-02-20T21:24:28.510Z,56.38
2019-02-20T21:27:37.696Z,56.49
2019-02-20T21:30:45.746Z,56.51
2019-02-20T21:34:10.462Z,56.43
2019-02-20T21:37:21.784Z,56.42
2019-02-20T21:40:45.525Z,56.47
2019-02-20T21:44:07.599Z,56.38
2019-02-20T21:47:43.732Z,56.47
2019-02-20T21:51:04.420Z,56.47
2019-02-20T21:54:12.819Z,56.46
2019-02-20T21:57:24.450Z,56.49
2019-02-20T22:00:33.102Z,56.53
2019-02-20T22:03:41.635Z,56.69
2019-02-20T22:06:56.108Z,56.68
2019-02-20T22:10:34.839Z,56.77
2019-02-20T22:14:06.488Z,56.77
2019-02-20T22:17:27.057Z,56.71
2019-02-20T22:21:04.941Z,56.68
2019-02-20T22:24:10.500Z,56.60
2019-02-20T22:27:34.296Z,56.52
2019-02-20T22:31:08.524Z,56.45
2019-02-20T22:34:29.214Z,56.45
2019-02-20T22:37:40.273Z,56.54
2019-02-20T22:40:49.087Z,56.60
2019-02-20T22:44:06.789Z,56.58
2019-02-20T22:47:17.922Z,56.54
2019-02-20T22:50:32.851Z,56.46
2019-02-20T22:53:53.523Z,56.42
2019-02-20T22:57:14.021Z,56.44
2019-02-20T23:00:48.648Z,56.45
2019-02-20T23:04:14.351Z,56.60
2019-02-20T23:07:23.056Z,56.54
2019-02-20T23:10:37.666Z,56.63
2019-02-20T23:13:57.794Z,56.49
2019-02-20T23:16:59.674Z,56.47
2019-02-20T23:20:01.551Z,56.53
2019-02-20T23:23:03.827Z,56.44
2019-02-20T23:26:05.777Z,56.37
2019-02-20T23:29:07.675Z,56.36
2019-02-20T23:32:09.558Z,56.38
2019-02-20T23:35:11.632Z,56.45
2019-02-20T23:38:13.581Z,56.53
2019-02-20T23:41:15.588Z,56.73
2019-02-20T23:44:17.519Z,56.84
2019-02-20T23:47:19.580Z,56.93
2019-02-20T23:50:21.510Z,56.89
2019-02-20T23:53:24.718Z,56.97
2019-02-20T23:56:26.797Z,57.12
2019-02-20T23:59:28.739Z,57.22
